createdAt,value
2023-02-07T00:00:17.318Z,73.61
2023-02-07T00:03:04.921Z,73.71
2023-02-07T00:05:32.472Z,74.16
2023-02-07T00:07:59.991Z,74.25
2023-02-07T00:10:27.712Z,74.00
2023-02-07T00:12:55.247Z,73.27
2023-02-07T00:15:22.817Z,72.54
2023-02-07T00:17:50.760Z,72.65
2023-02-07T00:20:18.389Z,73.16
2023-02-07T00:22:45.962Z,73.48
2023-02-07T00:25:13.642Z,74.25
2023-02-07T00:27:41.199Z,74.71
2023-02-07T00:30:08.784Z,74.48
2023-02-07T00:32:36.398Z,74.67
2023-02-07T00:35:03.913Z,74.76
2023-02-07T00:37:31.658Z,74.67
2023-02-07T00:39:59.270Z,74.67
2023-02-07T00:42:27.096Z,74.14
2023-02-07T00:44:54.795Z,73.42
2023-02-07T00:47:22.329Z,73.72
2023-02-07T00:49:49.853Z,73.37
2023-02-07T00:52:17.463Z,73.41
2023-02-07T00:54:45.067Z,73.51
2023-02-07T00:57:12.632Z,73.43
2023-02-07T00:59:40.270Z,72.88
2023-02-07T01:02:07.815Z,72.31
2023-02-07T01:04:35.384Z,72.03
2023-02-07T01:07:02.985Z,72.29
2023-02-07T01:09:30.614Z,72.56
2023-02-07T01:11:58.168Z,73.06
2023-02-07T01:14:25.925Z,73.23
2023-02-07T01:16:53.524Z,73.42
2023-02-07T01:19:21.081Z,73.91
2023-02-07T01:21:48.702Z,74.10
2023-02-07T01:24:16.360Z,74.48
2023-02-07T01:26:43.882Z,74.65
2023-02-07T01:29:11.416Z,74.60
2023-02-07T01:31:39.248Z,74.35
2023-02-07T01:34:06.858Z,74.81
2023-02-07T01:36:34.533Z,75.00
2023-02-07T01:39:04.047Z,75.30
2023-02-07T01:41:31.688Z,75.86
2023-02-07T01:43:59.222Z,75.77
2023-02-07T01:46:26.914Z,75.32
2023-02-07T01:48:55.558Z,75.10
2023-02-07T01:51:23.124Z,74.37
2023-02-07T01:53:50.736Z,74.62
2023-02-07T01:56:30.772Z,74.68
2023-02-07T01:58:59.180Z,74.51
2023-02-07T02:01:26.803Z,74.86
2023-02-07T02:03:55.805Z,75.46
2023-02-07T02:06:23.514Z,76.05
2023-02-07T02:08:51.058Z,76.58
2023-02-07T02:11:18.555Z,76.98
2023-02-07T02:13:46.200Z,77.21
2023-02-07T02:16:13.851Z,77.20
2023-02-07T02:18:41.442Z,77.14
2023-02-07T02:21:09.004Z,76.96
2023-02-07T02:23:36.677Z,77.00
2023-02-07T02:26:04.306Z,77.12
2023-02-07T02:28:31.884Z,75.57
2023-02-07T02:30:59.486Z,73.79
2023-02-07T02:33:27.278Z,73.64
2023-02-07T02:35:54.849Z,72.93
2023-02-07T02:38:22.502Z,72.61
2023-02-07T02:40:50.232Z,72.87
2023-02-07T02:43:17.783Z,73.11
2023-02-07T02:45:45.284Z,73.25
2023-02-07T02:48:13.005Z,73.58
2023-02-07T02:50:40.799Z,73.60
2023-02-07T02:53:08.339Z,73.74
2023-02-07T02:55:36.188Z,73.54
2023-02-07T02:58:04.020Z,73.56
2023-02-07T03:00:31.650Z,73.41
2023-02-07T03:02:59.644Z,73.26
2023-02-07T03:05:27.300Z,72.92
2023-02-07T03:07:54.941Z,73.26
2023-02-07T03:10:22.436Z,73.38
2023-02-07T03:12:50.024Z,73.81
2023-02-07T03:15:17.570Z,74.14
2023-02-07T03:17:45.107Z,74.27
2023-02-07T03:20:12.698Z,74.43
2023-02-07T03:22:40.305Z,74.68
2023-02-07T03:25:07.832Z,74.76
2023-02-07T03:27:35.430Z,74.34
2023-02-07T03:30:03.001Z,74.05
2023-02-07T03:32:30.819Z,74.45
2023-02-07T03:34:58.362Z,75.12
2023-02-07T03:37:25.943Z,75.03
2023-02-07T03:39:53.548Z,75.01
2023-02-07T03:42:21.390Z,76.13
2023-02-07T03:44:49.037Z,77.21
2023-02-07T03:47:16.671Z,77.98
2023-02-07T03:49:44.239Z,78.29
2023-02-07T03:52:11.794Z,77.98
2023-02-07T03:54:39.337Z,77.42
2023-02-07T03:57:07.158Z,76.44
2023-02-07T03:59:34.664Z,76.01
2023-02-07T04:02:02.380Z,75.75
2023-02-07T04:04:30.028Z,75.40
2023-02-07T04:06:57.595Z,75.34
2023-02-07T04:09:25.151Z,75.59
2023-02-07T04:11:52.728Z,75.24
2023-02-07T04:14:21.475Z,74.89
2023-02-07T04:16:49.245Z,75.16
2023-02-07T04:19:16.849Z,75.10
2023-02-07T04:21:44.392Z,74.59
2023-02-07T04:24:12.006Z,74.92
2023-02-07T04:26:39.603Z,75.06
2023-02-07T04:29:07.166Z,75.45
2023-02-07T04:31:34.769Z,75.64
2023-02-07T04:34:02.422Z,75.43
2023-02-07T04:36:31.119Z,75.73
2023-02-07T04:38:58.803Z,75.76
2023-02-07T04:41:26.500Z,76.47
2023-02-07T04:43:54.259Z,77.08
2023-02-07T04:46:21.800Z,77.55
2023-02-07T04:48:49.682Z,77.67
2023-02-07T04:51:17.225Z,78.13
2023-02-07T04:53:44.799Z,78.36
2023-02-07T04:56:12.536Z,78.65
2023-02-07T04:58:40.132Z,79.16
2023-02-07T05:01:07.685Z,79.41
2023-02-07T05:03:35.330Z,79.65
2023-02-07T05:06:02.961Z,79.12
2023-02-07T05:08:30.524Z,79.14
2023-02-07T05:10:58.112Z,79.20
2023-02-07T05:13:25.655Z,79.18
2023-02-07T05:15:53.213Z,79.16
2023-02-07T05:18:21.383Z,79.26
2023-02-07T05:20:50.869Z,79.08
2023-02-07T05:23:19.789Z,78.55
2023-02-07T05:25:47.419Z,78.16
2023-02-07T05:28:14.984Z,78.06
2023-02-07T05:30:42.561Z,77.65
2023-02-07T05:33:10.226Z,77.57
2023-02-07T05:35:38.073Z,77.62
2023-02-07T05:38:07.574Z,77.82
2023-02-07T05:40:35.228Z,78.18
2023-02-07T05:43:02.780Z,78.52
2023-02-07T05:45:30.479Z,78.44
2023-02-07T05:47:58.335Z,78.05
2023-02-07T05:50:25.856Z,78.03
2023-02-07T05:52:53.406Z,78.17
2023-02-07T05:55:21.002Z,78.18
2023-02-07T05:57:48.530Z,78.13
2023-02-07T06:00:16.067Z,78.19
2023-02-07T06:02:43.727Z,78.18
2023-02-07T06:05:11.449Z,78.08
2023-02-07T06:07:39.027Z,78.19
2023-02-07T06:10:06.673Z,78.26
2023-02-07T06:12:34.224Z,77.70
2023-02-07T06:15:01.810Z,77.41
2023-02-07T06:17:29.527Z,77.25
2023-02-07T06:19:57.054Z,78.15
2023-02-07T06:22:24.691Z,81.89
2023-02-07T06:24:52.309Z,84.44
2023-02-07T06:27:19.955Z,80.91
2023-02-07T06:29:47.561Z,78.75
2023-02-07T06:32:15.099Z,77.90
2023-02-07T06:34:42.626Z,77.70
2023-02-07T06:37:10.231Z,77.64
2023-02-07T06:39:37.855Z,77.77
2023-02-07T06:42:06.187Z,77.63
2023-02-07T06:44:33.796Z,77.59
2023-02-07T06:47:01.679Z,77.44
2023-02-07T06:49:29.219Z,77.39
2023-02-07T06:51:56.768Z,77.60
2023-02-07T06:54:24.315Z,77.70
2023-02-07T06:56:51.876Z,77.82
2023-02-07T06:59:19.454Z,78.19
2023-02-07T07:01:49.405Z,78.30
2023-02-07T07:04:18.436Z,78.19
2023-02-07T07:06:46.169Z,78.14
2023-02-07T07:09:13.808Z,78.16
2023-02-07T07:11:43.337Z,78.04
2023-02-07T07:14:11.014Z,77.85
2023-02-07T07:16:38.639Z,77.70
2023-02-07T07:19:06.244Z,77.80
2023-02-07T07:21:33.769Z,77.82
2023-02-07T07:24:01.432Z,77.84
2023-02-07T07:26:39.532Z,77.63
2023-02-07T07:29:14.580Z,77.64
2023-02-07T07:31:42.193Z,77.57
2023-02-07T07:34:09.735Z,77.09
2023-02-07T07:36:37.387Z,76.88
2023-02-07T07:39:04.993Z,76.80
2023-02-07T07:41:32.523Z,76.49
2023-02-07T07:44:00.310Z,76.42
2023-02-07T07:46:27.941Z,76.68
2023-02-07T07:48:55.793Z,77.25
2023-02-07T07:51:23.500Z,77.13
2023-02-07T07:53:51.036Z,76.80
2023-02-07T07:56:18.643Z,76.63
2023-02-07T07:58:46.346Z,76.70
2023-02-07T08:01:13.922Z,76.94
2023-02-07T08:03:41.533Z,77.25
2023-02-07T08:06:09.510Z,77.01
2023-02-07T08:08:37.120Z,76.91
2023-02-07T08:11:04.679Z,77.20
2023-02-07T08:13:33.106Z,77.14
2023-02-07T08:16:01.144Z,77.07
2023-02-07T08:18:29.136Z,76.57
2023-02-07T08:20:56.886Z,76.82
2023-02-07T08:23:24.554Z,77.04
2023-02-07T08:25:52.176Z,77.37
2023-02-07T08:28:19.868Z,77.79
2023-02-07T08:30:47.706Z,78.14
2023-02-07T08:33:15.401Z,77.95
2023-02-07T08:35:43.459Z,77.52
2023-02-07T08:38:11.069Z,77.76
2023-02-07T08:40:38.952Z,77.80
2023-02-07T08:43:12.349Z,77.85
2023-02-07T08:45:40.086Z,78.20
2023-02-07T08:48:07.748Z,78.52
2023-02-07T08:50:35.464Z,79.02
2023-02-07T08:53:02.975Z,79.12
2023-02-07T08:55:30.933Z,78.77
2023-02-07T08:57:58.546Z,78.56
2023-02-07T09:00:26.373Z,78.47
2023-02-07T09:02:53.948Z,78.43
2023-02-07T09:05:21.662Z,78.31
2023-02-07T09:07:49.184Z,78.15
2023-02-07T09:10:16.696Z,77.85
2023-02-07T09:12:44.303Z,77.66
2023-02-07T09:15:11.861Z,77.59
2023-02-07T09:17:39.429Z,77.36
2023-02-07T09:20:07.127Z,77.41
2023-02-07T09:22:54.690Z,77.63
2023-02-07T09:25:22.259Z,77.64
2023-02-07T09:27:49.802Z,77.69
2023-02-07T09:30:17.357Z,77.88
2023-02-07T09:32:44.959Z,78.07
2023-02-07T09:35:12.652Z,78.41
2023-02-07T09:37:49.273Z,78.43
2023-02-07T09:40:19.169Z,78.42
2023-02-07T09:42:46.840Z,78.28
2023-02-07T09:45:14.571Z,78.13
2023-02-07T09:47:42.243Z,78.12
2023-02-07T09:50:09.759Z,78.08
2023-02-07T09:52:37.366Z,78.04
2023-02-07T09:55:05.667Z,77.92
2023-02-07T09:57:37.623Z,77.66
2023-02-07T10:00:05.166Z,77.83
2023-02-07T10:02:33.199Z,77.75
2023-02-07T10:05:00.766Z,79.00
2023-02-07T10:07:28.372Z,79.73
2023-02-07T10:09:56.520Z,78.16
2023-02-07T10:12:24.140Z,77.37
2023-02-07T10:14:51.680Z,77.13
2023-02-07T10:17:30.564Z,77.16
2023-02-07T10:19:58.891Z,77.09
2023-02-07T10:22:26.464Z,76.97
2023-02-07T10:24:54.031Z,76.31
2023-02-07T10:27:21.622Z,76.13
2023-02-07T10:29:49.231Z,76.36
2023-02-07T10:32:16.755Z,76.91
2023-02-07T10:34:44.291Z,77.16
2023-02-07T10:37:11.868Z,77.34
2023-02-07T10:39:39.831Z,77.58
2023-02-07T10:42:07.436Z,77.49
2023-02-07T10:44:35.061Z,77.42
2023-02-07T10:47:02.843Z,77.53
2023-02-07T10:49:30.431Z,77.75
2023-02-07T10:51:58.078Z,77.89
2023-02-07T10:54:25.808Z,77.84
2023-02-07T10:56:56.002Z,78.40
2023-02-07T10:59:25.462Z,78.52
2023-02-07T11:01:52.973Z,78.58
2023-02-07T11:04:20.573Z,78.46
2023-02-07T11:06:48.244Z,78.28
2023-02-07T11:09:15.799Z,78.14
2023-02-07T11:11:45.695Z,78.00
2023-02-07T11:14:13.293Z,77.87
2023-02-07T11:16:40.822Z,77.70
2023-02-07T11:19:08.372Z,77.71
2023-02-07T11:21:36.148Z,77.92
2023-02-07T11:24:03.652Z,78.32
2023-02-07T11:26:31.525Z,78.56
2023-02-07T11:28:59.308Z,78.74
2023-02-07T11:31:26.883Z,78.93
2023-02-07T11:33:54.543Z,78.90
2023-02-07T11:36:26.181Z,79.01
2023-02-07T11:38:53.948Z,79.23
2023-02-07T11:41:21.665Z,79.24
2023-02-07T11:43:49.236Z,79.11
2023-02-07T11:46:16.813Z,79.05
2023-02-07T11:48:44.433Z,78.74
2023-02-07T11:51:12.423Z,78.53
2023-02-07T11:53:39.972Z,78.47
2023-02-07T11:56:07.897Z,78.35
2023-02-07T11:58:35.657Z,78.28
2023-02-07T12:01:04.206Z,78.17
2023-02-07T12:03:31.903Z,78.04
2023-02-07T12:05:59.458Z,77.88
2023-02-07T12:08:26.991Z,77.89
2023-02-07T12:10:54.504Z,78.06
2023-02-07T12:13:22.201Z,78.12
2023-02-07T12:15:49.771Z,78.12
2023-02-07T12:18:17.689Z,78.25
2023-02-07T12:20:45.277Z,78.11
2023-02-07T12:23:40.357Z,78.11
2023-02-07T12:26:01.596Z,78.14
2023-02-07T12:28:29.122Z,78.17
2023-02-07T12:30:56.675Z,78.38
2023-02-07T12:33:24.350Z,78.48
2023-02-07T12:35:57.175Z,78.59
2023-02-07T12:38:26.749Z,78.60
2023-02-07T12:40:54.504Z,78.67
2023-02-07T12:43:22.745Z,78.62
2023-02-07T12:45:51.634Z,78.61
2023-02-07T12:48:19.229Z,78.72
2023-02-07T12:50:46.735Z,78.75
2023-02-07T12:53:14.471Z,78.63
2023-02-07T12:55:42.075Z,78.41
2023-02-07T12:58:09.624Z,78.38
2023-02-07T13:00:37.365Z,78.43
2023-02-07T13:03:05.314Z,78.34
2023-02-07T13:05:33.046Z,78.43
2023-02-07T13:08:00.659Z,78.55
2023-02-07T13:10:29.077Z,78.36
2023-02-07T13:12:56.577Z,78.42
2023-02-07T13:15:24.225Z,78.31
2023-02-07T13:17:51.812Z,78.21
2023-02-07T13:20:19.326Z,78.24
2023-02-07T13:22:46.928Z,78.20
2023-02-07T13:25:14.443Z,78.17
2023-02-07T13:27:42.053Z,78.13
2023-02-07T13:30:11.437Z,78.06
2023-02-07T13:32:39.031Z,78.08
2023-02-07T13:35:06.568Z,78.18
2023-02-07T13:37:34.279Z,78.32
2023-02-07T13:40:01.815Z,78.39
2023-02-07T13:42:29.564Z,78.45
2023-02-07T13:44:57.659Z,78.53
2023-02-07T13:47:25.164Z,78.60
2023-02-07T13:49:52.699Z,78.70
2023-02-07T13:52:20.288Z,78.94
2023-02-07T13:54:47.791Z,79.09
2023-02-07T13:57:34.530Z,79.04
2023-02-07T14:00:02.086Z,79.20
2023-02-07T14:02:30.528Z,79.18
2023-02-07T14:05:01.010Z,79.15
2023-02-07T14:07:29.819Z,79.31
2023-02-07T14:09:58.860Z,79.27
2023-02-07T14:12:26.571Z,79.29
2023-02-07T14:15:02.609Z,79.32
2023-02-07T14:17:30.807Z,79.29
2023-02-07T14:19:58.366Z,79.10
2023-02-07T14:22:27.040Z,79.14
2023-02-07T14:24:54.714Z,79.15
2023-02-07T14:27:22.454Z,79.09
2023-02-07T14:29:49.968Z,79.17
2023-02-07T14:32:17.786Z,79.34
2023-02-07T14:34:45.536Z,79.52
2023-02-07T14:37:14.283Z,79.62
2023-02-07T14:39:41.840Z,79.62
2023-02-07T14:42:09.388Z,79.69
2023-02-07T14:44:37.039Z,79.81
2023-02-07T14:47:04.750Z,80.03
2023-02-07T14:49:32.555Z,80.03
2023-02-07T14:52:00.128Z,80.01
2023-02-07T14:54:27.780Z,80.20
2023-02-07T14:56:55.329Z,80.27
2023-02-07T14:59:22.858Z,80.27
2023-02-07T15:01:50.486Z,80.20
2023-02-07T15:04:17.974Z,80.20
2023-02-07T15:06:45.466Z,80.22
2023-02-07T15:09:13.233Z,80.32
2023-02-07T15:11:40.775Z,80.30
2023-02-07T15:14:08.326Z,80.18
2023-02-07T15:16:40.365Z,80.00
2023-02-07T15:19:07.928Z,79.94
2023-02-07T15:21:35.528Z,80.13
2023-02-07T15:24:03.121Z,80.40
2023-02-07T15:26:30.893Z,80.70
2023-02-07T15:28:59.129Z,80.84
2023-02-07T15:31:26.862Z,81.00
2023-02-07T15:33:54.531Z,81.11
2023-02-07T15:36:22.115Z,81.20
2023-02-07T15:38:50.166Z,81.32
2023-02-07T15:41:17.765Z,81.22
2023-02-07T15:43:45.335Z,81.28
2023-02-07T15:46:12.918Z,81.36
2023-02-07T15:48:40.525Z,81.40
2023-02-07T15:51:08.161Z,81.53
2023-02-07T15:53:35.895Z,81.63
2023-02-07T15:56:03.405Z,81.60
2023-02-07T15:58:30.925Z,81.56
2023-02-07T16:00:58.846Z,81.69
2023-02-07T16:03:28.802Z,81.81
2023-02-07T16:05:56.324Z,81.93
2023-02-07T16:08:23.905Z,82.02
2023-02-07T16:10:51.461Z,82.03
2023-02-07T16:13:19.271Z,81.95
2023-02-07T16:15:46.831Z,82.07
2023-02-07T16:18:14.433Z,82.12
2023-02-07T16:20:42.178Z,82.18
2023-02-07T16:23:10.169Z,82.32
2023-02-07T16:25:37.804Z,82.62
2023-02-07T16:28:05.411Z,82.61
2023-02-07T16:30:33.037Z,82.84
2023-02-07T16:33:00.649Z,83.28
2023-02-07T16:35:28.277Z,83.28
2023-02-07T16:37:55.950Z,83.43
2023-02-07T16:40:23.754Z,83.53
2023-02-07T16:42:51.376Z,83.54
2023-02-07T16:45:19.214Z,83.75
2023-02-07T16:47:47.000Z,83.73
2023-02-07T16:50:15.147Z,83.79
2023-02-07T16:52:42.718Z,83.92
2023-02-07T16:55:10.525Z,84.10
2023-02-07T16:57:38.646Z,84.39
2023-02-07T17:00:06.493Z,84.35
2023-02-07T17:02:34.118Z,84.34
2023-02-07T17:05:03.500Z,84.31
2023-02-07T17:07:31.453Z,84.45
2023-02-07T17:09:58.979Z,84.58
2023-02-07T17:12:26.948Z,84.68
2023-02-07T17:14:54.625Z,84.70
2023-02-07T17:17:23.337Z,84.81
2023-02-07T17:19:51.304Z,84.94
2023-02-07T17:22:19.031Z,85.01
2023-02-07T17:24:47.873Z,85.10
2023-02-07T17:27:15.617Z,85.22
2023-02-07T17:29:44.986Z,85.12
2023-02-07T17:32:12.587Z,84.98
2023-02-07T17:34:40.466Z,85.33
2023-02-07T17:37:08.080Z,85.63
2023-02-07T17:39:35.843Z,85.61
2023-02-07T17:42:03.755Z,85.66
2023-02-07T17:44:32.981Z,86.43
2023-02-07T17:47:01.541Z,85.58
2023-02-07T17:49:29.609Z,85.12
2023-02-07T17:51:57.221Z,84.75
2023-02-07T17:54:25.086Z,84.69
2023-02-07T17:56:52.626Z,84.77
2023-02-07T17:59:20.300Z,84.97
2023-02-07T18:01:48.072Z,84.94
2023-02-07T18:04:16.143Z,85.00
2023-02-07T18:06:44.090Z,84.92
2023-02-07T18:09:11.908Z,84.92
2023-02-07T18:11:39.443Z,84.83
2023-02-07T18:14:07.262Z,84.87
2023-02-07T18:16:34.787Z,84.97
2023-02-07T18:19:03.899Z,85.11
2023-02-07T18:21:31.685Z,85.17
2023-02-07T18:23:59.516Z,85.18
2023-02-07T18:26:27.122Z,85.14
2023-02-07T18:28:54.968Z,85.05
2023-02-07T18:31:22.745Z,84.94
2023-02-07T18:33:50.336Z,84.89
2023-02-07T18:36:18.198Z,84.86
2023-02-07T18:38:45.844Z,84.70
2023-02-07T18:41:13.432Z,84.66
2023-02-07T18:43:41.193Z,84.60
2023-02-07T18:46:09.125Z,84.49
2023-02-07T18:48:37.016Z,84.32
2023-02-07T18:51:04.623Z,84.18
2023-02-07T18:53:32.793Z,83.98
2023-02-07T18:56:00.591Z,83.92
2023-02-07T18:58:28.207Z,83.85
2023-02-07T19:00:55.988Z,83.89
2023-02-07T19:03:23.807Z,83.96
2023-02-07T19:05:51.409Z,84.08
2023-02-07T19:08:18.932Z,84.10
2023-02-07T19:10:46.444Z,83.91
2023-02-07T19:13:14.890Z,83.90
2023-02-07T19:15:42.722Z,83.94
2023-02-07T19:18:10.574Z,84.06
2023-02-07T19:20:38.698Z,84.15
2023-02-07T19:23:07.614Z,84.13
2023-02-07T19:25:35.434Z,85.17
2023-02-07T19:28:03.348Z,87.83
2023-02-07T19:30:31.283Z,84.72
2023-02-07T19:32:59.951Z,84.07
2023-02-07T19:35:28.310Z,83.56
2023-02-07T19:37:56.181Z,83.40
2023-02-07T19:40:24.096Z,83.58
2023-02-07T19:42:52.012Z,83.66
2023-02-07T19:45:19.798Z,83.53
2023-02-07T19:47:47.493Z,83.42
2023-02-07T19:50:15.573Z,83.31
2023-02-07T19:52:44.635Z,83.31
2023-02-07T19:55:12.500Z,83.37
2023-02-07T19:57:42.013Z,83.24
2023-02-07T20:00:09.848Z,83.27
2023-02-07T20:02:37.610Z,83.37
2023-02-07T20:05:05.739Z,83.82
2023-02-07T20:07:33.333Z,83.55
2023-02-07T20:10:01.236Z,83.50
2023-02-07T20:12:28.934Z,83.51
2023-02-07T20:14:56.433Z,83.57
2023-02-07T20:17:23.944Z,83.60
2023-02-07T20:19:52.095Z,83.65
2023-02-07T20:22:19.590Z,84.14
2023-02-07T20:24:47.090Z,84.44
2023-02-07T20:27:15.083Z,84.48
2023-02-07T20:29:42.827Z,84.46
2023-02-07T20:32:14.300Z,84.42
2023-02-07T20:34:41.960Z,84.41
2023-02-07T20:37:09.855Z,84.41
2023-02-07T20:39:37.699Z,84.40
2023-02-07T20:42:05.846Z,84.54
2023-02-07T20:44:33.642Z,84.63
2023-02-07T20:47:01.521Z,84.54
2023-02-07T20:49:29.324Z,84.42
2023-02-07T20:51:56.877Z,84.23
2023-02-07T20:54:24.439Z,84.19
2023-02-07T20:56:52.039Z,84.12
2023-02-07T20:59:19.612Z,84.13
2023-02-07T21:01:47.466Z,84.07
2023-02-07T21:04:15.140Z,84.17
2023-02-07T21:06:42.794Z,84.20
2023-02-07T21:09:10.708Z,84.30
2023-02-07T21:11:39.275Z,84.55
2023-02-07T21:14:06.851Z,84.60
2023-02-07T21:16:34.594Z,84.69
2023-02-07T21:19:02.323Z,84.56
2023-02-07T21:21:29.919Z,84.47
2023-02-07T21:23:57.536Z,84.21
2023-02-07T21:26:27.041Z,84.27
2023-02-07T21:28:55.117Z,84.41
2023-02-07T21:31:22.634Z,84.40
2023-02-07T21:33:51.309Z,84.41
2023-02-07T21:36:18.919Z,84.47
2023-02-07T21:38:46.711Z,84.56
2023-02-07T21:41:14.303Z,84.50
2023-02-07T21:43:42.174Z,84.46
2023-02-07T21:46:09.773Z,84.57
2023-02-07T21:48:37.900Z,84.37
2023-02-07T21:51:05.436Z,84.43
2023-02-07T21:53:33.051Z,84.64
2023-02-07T21:56:00.904Z,84.83
2023-02-07T21:58:28.504Z,84.87
2023-02-07T22:00:56.106Z,84.82
2023-02-07T22:03:23.842Z,84.92
2023-02-07T22:05:52.213Z,84.91
2023-02-07T22:08:19.771Z,84.95
2023-02-07T22:10:47.307Z,85.00
2023-02-07T22:13:14.838Z,85.03
2023-02-07T22:15:42.340Z,85.04
2023-02-07T22:18:09.902Z,85.03
2023-02-07T22:20:37.489Z,85.00
2023-02-07T22:23:05.090Z,84.95
2023-02-07T22:25:32.821Z,84.96
2023-02-07T22:28:00.354Z,84.97
2023-02-07T22:30:27.949Z,84.98
2023-02-07T22:32:55.524Z,84.99
2023-02-07T22:35:23.245Z,84.86
2023-02-07T22:37:50.760Z,84.77
2023-02-07T22:40:18.501Z,84.70
2023-02-07T22:42:46.033Z,84.70
2023-02-07T22:45:13.550Z,84.68
2023-02-07T22:47:41.147Z,84.64
2023-02-07T22:50:08.948Z,84.62
2023-02-07T22:52:36.462Z,84.67
2023-02-07T22:55:04.300Z,84.70
2023-02-07T22:57:31.869Z,84.73
2023-02-07T23:00:00.890Z,84.89
2023-02-07T23:02:28.718Z,84.90
2023-02-07T23:04:56.515Z,84.91
2023-02-07T23:07:26.661Z,84.97
2023-02-07T23:09:54.567Z,85.00
2023-02-07T23:12:22.154Z,85.00
2023-02-07T23:14:49.745Z,85.01
2023-02-07T23:17:17.408Z,84.84
2023-02-07T23:19:44.947Z,84.54
2023-02-07T23:22:12.493Z,84.37
2023-02-07T23:24:40.133Z,84.37
2023-02-07T23:27:07.662Z,84.49
2023-02-07T23:29:35.212Z,84.44
2023-02-07T23:32:02.960Z,84.54
2023-02-07T23:34:30.578Z,84.73
2023-02-07T23:36:58.208Z,84.90
2023-02-07T23:39:25.881Z,84.86
2023-02-07T23:41:53.434Z,84.78
2023-02-07T23:44:21.227Z,84.75
2023-02-07T23:46:48.817Z,84.61
2023-02-07T23:49:16.400Z,84.56
2023-02-07T23:51:45.593Z,84.47
2023-02-07T23:54:13.258Z,84.46
2023-02-07T23:56:41.182Z,84.35
2023-02-07T23:59:08.746Z,84.45
